createdAt,value
2018-02-19T00:01:12.545Z,3.04
2018-02-19T00:03:42.283Z,3.00
2018-02-19T00:06:11.980Z,2.98
2018-02-19T00:08:41.819Z,2.97
2018-02-19T00:11:11.569Z,2.98
2018-02-19T00:13:41.461Z,2.97
2018-02-19T00:16:11.300Z,2.95
2018-02-19T00:18:41.858Z,2.96
2018-02-19T00:21:11.697Z,3.01
2018-02-19T00:23:41.536Z,3.00
2018-02-19T00:26:11.319Z,3.05
2018-02-19T00:28:41.881Z,3.00
2018-02-19T00:31:11.669Z,3.01
2018-02-19T00:33:41.549Z,3.00
2018-02-19T00:36:11.305Z,2.97
2018-02-19T00:38:41.148Z,3.01
2018-02-19T00:41:10.934Z,3.01
2018-02-19T00:43:40.676Z,3.03
2018-02-19T00:46:10.520Z,2.98
2018-02-19T00:48:40.742Z,3.00
2018-02-19T00:51:10.816Z,2.98
2018-02-19T00:53:40.622Z,2.97
2018-02-19T00:56:11.981Z,2.98
2018-02-19T00:58:41.764Z,2.91
2018-02-19T01:01:11.850Z,2.86
2018-02-19T01:03:41.585Z,2.84
2018-02-19T01:06:12.016Z,2.82
2018-02-19T01:08:41.779Z,2.80
2018-02-19T01:11:11.629Z,2.79
2018-02-19T01:13:42.234Z,2.78
2018-02-19T01:16:12.000Z,2.77
2018-02-19T01:18:41.779Z,2.75
2018-02-19T01:21:11.644Z,2.70
2018-02-19T01:23:42.190Z,2.75
2018-02-19T01:26:13.021Z,2.77
2018-02-19T01:28:42.784Z,2.70
2018-02-19T01:31:12.546Z,2.71
2018-02-19T01:33:42.285Z,2.69
2018-02-19T01:36:12.068Z,2.66
2018-02-19T01:38:41.871Z,2.63
2018-02-19T01:41:11.625Z,2.67
2018-02-19T01:43:41.524Z,2.72
2018-02-19T01:46:11.311Z,2.67
2018-02-19T01:48:41.977Z,2.65
2018-02-19T01:51:11.720Z,2.67
2018-02-19T01:53:41.545Z,2.69
2018-02-19T01:56:11.295Z,2.70
2018-02-19T01:58:41.044Z,2.68
2018-02-19T02:01:11.736Z,2.66
2018-02-19T02:03:42.243Z,2.71
2018-02-19T02:06:12.837Z,2.71
2018-02-19T02:08:42.615Z,2.68
2018-02-19T02:11:13.188Z,2.66
2018-02-19T02:13:43.009Z,2.62
2018-02-19T02:16:12.724Z,2.60
2018-02-19T02:18:42.524Z,2.58
2018-02-19T02:21:12.332Z,2.55
2018-02-19T02:23:42.078Z,2.53
2018-02-19T02:26:11.812Z,2.58
2018-02-19T02:28:41.567Z,2.60
2018-02-19T02:31:11.725Z,2.57
2018-02-19T02:33:42.323Z,2.56
2018-02-19T02:36:12.036Z,2.57
2018-02-19T02:38:41.921Z,2.58
2018-02-19T02:41:12.505Z,2.62
2018-02-19T02:43:42.230Z,2.65
2018-02-19T02:46:12.014Z,2.65
2018-02-19T02:48:41.789Z,2.72
2018-02-19T02:51:11.592Z,2.72
2018-02-19T02:53:41.776Z,2.71
2018-02-19T02:56:11.503Z,2.79
2018-02-19T02:58:41.262Z,2.76
2018-02-19T03:01:11.068Z,2.72
2018-02-19T03:03:40.936Z,2.73
2018-02-19T03:06:10.814Z,2.74
2018-02-19T03:08:41.332Z,2.74
2018-02-19T03:11:11.027Z,2.76
2018-02-19T03:13:40.817Z,2.76
2018-02-19T03:16:10.532Z,2.72
2018-02-19T03:18:40.237Z,2.71
2018-02-19T03:21:11.505Z,2.69
2018-02-19T03:23:41.320Z,2.69
2018-02-19T03:26:11.905Z,2.71
2018-02-19T03:28:41.875Z,2.69
2018-02-19T03:31:12.343Z,2.69
2018-02-19T03:33:42.233Z,2.75
2018-02-19T03:36:12.751Z,2.70
2018-02-19T03:38:42.611Z,2.70
2018-02-19T03:41:12.356Z,2.67
2018-02-19T03:43:42.179Z,2.68
2018-02-19T03:46:11.905Z,2.68
2018-02-19T03:48:41.751Z,2.71
2018-02-19T03:51:11.571Z,2.77
2018-02-19T03:53:41.336Z,2.75
2018-02-19T03:56:11.083Z,2.77
2018-02-19T03:58:40.897Z,2.79
2018-02-19T04:01:11.451Z,2.79
2018-02-19T04:03:41.232Z,2.83
2018-02-19T04:06:11.110Z,2.81
2018-02-19T04:08:40.865Z,2.83
2018-02-19T04:11:10.848Z,2.81
2018-02-19T04:13:40.597Z,2.80
2018-02-19T04:16:10.590Z,2.84
2018-02-19T04:18:41.063Z,2.92
2018-02-19T04:21:11.124Z,2.93
2018-02-19T04:23:40.867Z,2.88
2018-02-19T04:26:11.695Z,2.88
2018-02-19T04:28:41.685Z,2.84
2018-02-19T04:31:11.980Z,2.87
2018-02-19T04:33:41.860Z,2.85
2018-02-19T04:36:11.641Z,2.88
2018-02-19T04:38:41.386Z,2.86
2018-02-19T04:41:11.536Z,2.88
2018-02-19T04:43:41.309Z,2.91
2018-02-19T04:46:12.012Z,2.88
2018-02-19T04:48:41.830Z,2.91
2018-02-19T04:51:12.414Z,2.93
2018-02-19T04:53:42.965Z,2.93
2018-02-19T04:56:12.846Z,2.97
2018-02-19T04:58:42.544Z,2.96
2018-02-19T05:01:12.528Z,2.99
2018-02-19T05:03:43.139Z,3.00
2018-02-19T05:06:12.927Z,3.00
2018-02-19T05:08:42.704Z,2.94
2018-02-19T05:11:12.785Z,2.98
2018-02-19T05:13:44.913Z,3.01
2018-02-19T05:16:14.648Z,3.03
2018-02-19T05:18:44.426Z,2.96
2018-02-19T05:21:14.188Z,2.98
2018-02-19T05:23:44.743Z,3.01
2018-02-19T05:26:14.495Z,2.98
2018-02-19T05:28:44.211Z,3.00
2018-02-19T05:31:14.122Z,2.98
2018-02-19T05:33:43.956Z,2.96
2018-02-19T05:36:13.700Z,2.96
2018-02-19T05:38:43.438Z,3.10
2018-02-19T05:41:13.227Z,3.07
2018-02-19T05:43:43.067Z,3.00
2018-02-19T05:46:13.407Z,3.06
2018-02-19T05:48:43.207Z,3.20
2018-02-19T05:51:13.001Z,3.06
2018-02-19T05:53:43.812Z,3.00
2018-02-19T05:56:13.511Z,3.02
2018-02-19T05:58:43.363Z,3.04
2018-02-19T06:01:13.059Z,3.09
2018-02-19T06:03:42.795Z,3.25
2018-02-19T06:06:12.992Z,3.20
2018-02-19T06:08:42.936Z,3.08
2018-02-19T06:11:12.704Z,3.07
2018-02-19T06:13:42.631Z,2.98
2018-02-19T06:16:12.312Z,3.04
2018-02-19T06:18:42.347Z,3.11
2018-02-19T06:21:12.250Z,3.19
2018-02-19T06:23:42.085Z,3.10
2018-02-19T06:26:11.901Z,3.07
2018-02-19T06:28:41.679Z,3.12
2018-02-19T06:31:11.462Z,3.10
2018-02-19T06:33:41.367Z,3.12
2018-02-19T06:36:11.128Z,3.09
2018-02-19T06:38:40.884Z,3.09
2018-02-19T06:41:11.469Z,3.13
2018-02-19T06:43:41.417Z,3.19
2018-02-19T06:46:11.303Z,3.12
2018-02-19T06:48:42.338Z,3.15
2018-02-19T06:51:13.515Z,3.11
2018-02-19T06:53:44.393Z,3.09
2018-02-19T06:56:15.395Z,3.13
2018-02-19T06:58:45.332Z,3.10
2018-02-19T07:01:15.332Z,3.10
2018-02-19T07:03:46.045Z,3.14
2018-02-19T07:06:15.966Z,3.09
2018-02-19T07:08:46.178Z,3.15
2018-02-19T07:11:15.990Z,3.16
2018-02-19T07:13:46.060Z,3.23
2018-02-19T07:16:15.912Z,3.34
2018-02-19T07:18:46.487Z,3.29
2018-02-19T07:21:16.308Z,3.16
2018-02-19T07:23:46.418Z,3.17
2018-02-19T07:26:16.984Z,3.19
2018-02-19T07:28:48.463Z,3.32
2018-02-19T07:31:18.273Z,3.28
2018-02-19T07:33:48.157Z,3.35
2018-02-19T07:36:17.913Z,3.46
2018-02-19T07:38:48.409Z,3.53
2018-02-19T07:41:18.287Z,3.55
2018-02-19T07:43:48.340Z,3.53
2018-02-19T07:46:18.243Z,3.54
2018-02-19T07:48:48.235Z,3.62
2018-02-19T07:51:20.211Z,3.61
2018-02-19T07:53:50.708Z,3.65
2018-02-19T07:56:20.545Z,3.72
2018-02-19T07:58:50.777Z,3.70
2018-02-19T08:01:20.693Z,3.80
2018-02-19T08:03:50.458Z,3.77
2018-02-19T08:06:21.024Z,3.77
2018-02-19T08:08:50.784Z,3.83
2018-02-19T08:11:20.621Z,3.89
2018-02-19T08:13:51.479Z,3.89
2018-02-19T08:16:21.319Z,4.01
2018-02-19T08:18:51.867Z,3.96
2018-02-19T08:21:21.794Z,4.10
2018-02-19T08:23:51.542Z,4.15
2018-02-19T08:26:21.385Z,4.05
2018-02-19T08:28:51.430Z,4.08
2018-02-19T08:31:21.250Z,4.10
2018-02-19T08:33:50.975Z,4.17
2018-02-19T08:36:20.738Z,4.12
2018-02-19T08:38:50.585Z,4.21
2018-02-19T08:41:20.417Z,4.23
2018-02-19T08:43:50.297Z,4.28
2018-02-19T08:46:19.979Z,4.32
2018-02-19T08:48:49.779Z,4.40
2018-02-19T08:51:20.329Z,4.43
2018-02-19T08:53:50.174Z,4.52
2018-02-19T08:56:19.952Z,4.56
2018-02-19T08:58:49.659Z,4.61
2018-02-19T09:01:19.441Z,4.61
2018-02-19T09:03:49.991Z,4.71
2018-02-19T09:06:19.740Z,4.85
2018-02-19T09:08:49.518Z,4.92
2018-02-19T09:11:19.348Z,4.99
2018-02-19T09:13:49.153Z,5.03
2018-02-19T09:16:18.981Z,5.03
2018-02-19T09:18:49.498Z,5.05
2018-02-19T09:21:19.357Z,5.04
2018-02-19T09:23:49.216Z,5.10
2018-02-19T09:26:19.746Z,5.14
2018-02-19T09:28:49.610Z,5.19
2018-02-19T09:31:19.355Z,5.25
2018-02-19T09:33:49.160Z,5.28
2018-02-19T09:36:18.932Z,5.45
2018-02-19T09:38:48.798Z,5.51
2018-02-19T09:41:19.358Z,5.49
2018-02-19T09:43:49.131Z,5.39
2018-02-19T09:46:19.136Z,5.52
2018-02-19T09:48:48.908Z,5.57
2018-02-19T09:51:18.712Z,5.63
2018-02-19T09:53:49.241Z,5.68
2018-02-19T09:56:18.970Z,5.67
2018-02-19T09:58:49.490Z,5.74
2018-02-19T10:01:19.298Z,5.71
2018-02-19T10:03:50.105Z,5.87
2018-02-19T10:06:19.907Z,5.79
2018-02-19T10:08:50.475Z,5.87
2018-02-19T10:11:20.258Z,5.87
2018-02-19T10:13:50.222Z,5.89
2018-02-19T10:16:19.926Z,5.90
2018-02-19T10:18:50.428Z,5.91
2018-02-19T10:21:20.229Z,6.00
2018-02-19T10:23:49.952Z,6.04
2018-02-19T10:26:20.546Z,5.98
2018-02-19T10:28:51.147Z,6.02
2018-02-19T10:31:20.942Z,5.93
2018-02-19T10:33:50.723Z,6.04
2018-02-19T10:36:20.574Z,6.06
2018-02-19T10:38:50.303Z,6.04
2018-02-19T10:41:22.198Z,6.03
2018-02-19T10:43:52.116Z,6.07
2018-02-19T10:46:23.195Z,6.18
2018-02-19T10:48:54.328Z,6.26
2018-02-19T10:51:24.148Z,6.34
2018-02-19T10:53:53.928Z,6.44
2018-02-19T10:56:24.463Z,6.46
2018-02-19T10:58:54.185Z,6.50
2018-02-19T11:01:24.829Z,6.65
2018-02-19T11:03:54.559Z,6.69
2018-02-19T11:06:25.256Z,6.58
2018-02-19T11:08:55.021Z,6.64
2018-02-19T11:11:25.577Z,6.76
2018-02-19T11:13:55.459Z,6.96
2018-02-19T11:16:25.182Z,7.01
2018-02-19T11:18:56.461Z,6.94
2018-02-19T11:21:26.179Z,6.83
2018-02-19T11:23:56.006Z,6.81
2018-02-19T11:26:25.732Z,6.79
2018-02-19T11:28:55.506Z,6.80
2018-02-19T11:31:25.238Z,6.83
2018-02-19T11:33:54.946Z,6.87
2018-02-19T11:36:24.760Z,6.84
2018-02-19T11:38:55.512Z,6.89
2018-02-19T11:41:24.337Z,6.90
2018-02-19T11:43:54.166Z,6.89
2018-02-19T11:46:23.880Z,6.83
2018-02-19T11:48:53.722Z,6.77
2018-02-19T11:51:23.440Z,6.74
2018-02-19T11:53:53.267Z,6.75
2018-02-19T11:56:23.111Z,6.64
2018-02-19T11:58:53.589Z,6.57
2018-02-19T12:01:23.406Z,6.63
2018-02-19T12:03:53.155Z,6.70
2018-02-19T12:06:22.929Z,6.78
2018-02-19T12:08:53.501Z,6.87
2018-02-19T12:11:23.346Z,6.92
2018-02-19T12:13:53.140Z,7.03
2018-02-19T12:16:22.944Z,7.11
2018-02-19T12:18:53.045Z,7.09
2018-02-19T12:21:22.883Z,7.22
2018-02-19T12:23:52.677Z,7.29
2018-02-19T12:26:22.384Z,7.42
2018-02-19T12:28:53.053Z,7.43
2018-02-19T12:31:22.912Z,7.53
2018-02-19T12:33:52.636Z,7.32
2018-02-19T12:36:22.623Z,7.42
2018-02-19T12:38:52.406Z,7.53
2018-02-19T12:41:22.277Z,7.59
2018-02-19T12:43:52.824Z,7.67
2018-02-19T12:46:22.762Z,7.72
2018-02-19T12:48:53.431Z,7.83
2018-02-19T12:51:23.096Z,7.80
2018-02-19T12:53:53.042Z,7.80
2018-02-19T12:56:22.920Z,7.80
2018-02-19T12:58:52.699Z,7.83
2018-02-19T13:01:23.341Z,7.88
2018-02-19T13:03:53.829Z,7.84
2018-02-19T13:06:23.660Z,7.77
2018-02-19T13:08:53.599Z,7.83
2018-02-19T13:11:23.386Z,7.80
2018-02-19T13:13:53.496Z,7.76
2018-02-19T13:16:24.058Z,7.68
2018-02-19T13:18:53.856Z,7.49
2018-02-19T13:21:23.716Z,7.50
2018-02-19T13:23:53.470Z,7.43
2018-02-19T13:26:23.277Z,7.43
2018-02-19T13:28:53.021Z,7.48
2018-02-19T13:31:22.810Z,7.50
2018-02-19T13:33:52.533Z,7.57
2018-02-19T13:36:22.330Z,7.64
2018-02-19T13:38:52.172Z,7.72
2018-02-19T13:41:22.190Z,7.70
2018-02-19T13:43:52.058Z,7.76
2018-02-19T13:46:22.245Z,7.69
2018-02-19T13:48:52.063Z,7.63
2018-02-19T13:51:21.832Z,7.67
2018-02-19T13:53:51.565Z,7.72
2018-02-19T13:56:21.392Z,7.73
2018-02-19T13:58:51.168Z,7.79
2018-02-19T14:01:21.017Z,7.83
2018-02-19T14:03:50.755Z,7.82
2018-02-19T14:06:20.561Z,7.87
2018-02-19T14:08:50.495Z,7.86
2018-02-19T14:11:20.405Z,8.04
2018-02-19T14:13:50.229Z,7.92
2018-02-19T14:16:20.033Z,7.91
2018-02-19T14:18:49.814Z,7.84
2018-02-19T14:21:19.612Z,7.80
2018-02-19T14:23:49.400Z,7.99
2018-02-19T14:26:20.168Z,7.93
2018-02-19T14:28:49.989Z,7.88
2018-02-19T14:31:19.892Z,7.90
2018-02-19T14:33:49.776Z,7.92
2018-02-19T14:36:21.848Z,7.78
2018-02-19T14:38:51.762Z,7.73
2018-02-19T14:41:21.589Z,7.70
2018-02-19T14:43:51.477Z,7.72
2018-02-19T14:46:21.248Z,7.73
2018-02-19T14:48:51.297Z,7.64
2018-02-19T14:51:21.890Z,7.69
2018-02-19T14:53:51.676Z,7.73
2018-02-19T14:56:21.416Z,7.74
2018-02-19T14:58:51.254Z,7.76
2018-02-19T15:01:20.995Z,7.80
2018-02-19T15:03:50.785Z,7.76
2018-02-19T15:06:20.605Z,7.69
2018-02-19T15:08:50.359Z,7.66
2018-02-19T15:11:20.234Z,7.66
2018-02-19T15:13:50.023Z,7.58
2018-02-19T15:16:20.602Z,7.46
2018-02-19T15:18:50.365Z,7.43
2018-02-19T15:21:20.213Z,7.43
2018-02-19T15:23:55.838Z,7.38
2018-02-19T15:26:25.771Z,7.30
2018-02-19T15:28:55.581Z,7.35
2018-02-19T15:31:25.443Z,7.28
2018-02-19T15:33:55.226Z,7.23
2018-02-19T15:36:25.109Z,7.35
2018-02-19T15:38:55.655Z,7.25
2018-02-19T15:41:26.219Z,7.15
2018-02-19T15:43:56.023Z,7.16
2018-02-19T15:46:26.657Z,7.10
2018-02-19T15:48:56.573Z,7.06
2018-02-19T15:51:26.388Z,7.01
2018-02-19T15:53:56.395Z,6.92
2018-02-19T15:56:26.356Z,6.90
2018-02-19T15:58:56.988Z,6.84
2018-02-19T16:01:26.819Z,6.77
2018-02-19T16:03:57.011Z,6.74
2018-02-19T16:06:26.786Z,6.70
2018-02-19T16:08:57.564Z,6.60
2018-02-19T16:11:27.511Z,6.62
2018-02-19T16:13:57.295Z,6.64
2018-02-19T16:16:27.799Z,6.56
2018-02-19T16:18:57.679Z,6.52
2018-02-19T16:21:31.724Z,6.52
2018-02-19T16:24:01.480Z,6.46
2018-02-19T16:26:31.508Z,6.44
2018-02-19T16:29:01.285Z,6.37
2018-02-19T16:31:31.083Z,6.34
2018-02-19T16:34:00.957Z,6.32
2018-02-19T16:36:30.960Z,6.27
2018-02-19T16:39:00.913Z,6.25
2018-02-19T16:41:30.765Z,6.22
2018-02-19T16:44:00.653Z,6.19
2018-02-19T16:46:30.508Z,6.17
2018-02-19T16:49:00.333Z,6.14
2018-02-19T16:51:30.152Z,6.08
2018-02-19T16:54:00.110Z,6.04
2018-02-19T16:56:30.646Z,6.02
2018-02-19T16:59:01.207Z,6.03
2018-02-19T17:01:31.078Z,5.98
2018-02-19T17:04:00.948Z,5.97
2018-02-19T17:06:30.714Z,5.96
2018-02-19T17:09:00.527Z,5.96
2018-02-19T17:11:33.310Z,5.92
2018-02-19T17:14:03.264Z,5.91
2018-02-19T17:16:33.247Z,5.89
2018-02-19T17:19:02.992Z,5.89
2018-02-19T17:21:32.987Z,5.88
2018-02-19T17:24:03.692Z,5.88
2018-02-19T17:26:33.520Z,5.88
2018-02-19T17:29:03.416Z,5.85
2018-02-19T17:31:33.213Z,5.85
2018-02-19T17:34:03.121Z,5.86
2018-02-19T17:36:33.177Z,5.85
2018-02-19T17:39:03.124Z,5.85
2018-02-19T17:41:33.731Z,5.85
2018-02-19T17:44:03.518Z,5.85
2018-02-19T17:46:33.255Z,5.84
2018-02-19T17:49:03.885Z,5.85
2018-02-19T17:51:33.995Z,5.92
2018-02-19T17:54:04.994Z,5.90
2018-02-19T17:56:34.849Z,5.89
2018-02-19T17:59:10.005Z,5.88
2018-02-19T18:01:42.794Z,5.87
2018-02-19T18:04:16.142Z,5.89
2018-02-19T18:06:46.509Z,5.88
2018-02-19T18:09:17.741Z,5.89
2018-02-19T18:11:48.788Z,5.87
2018-02-19T18:14:19.966Z,5.84
2018-02-19T18:16:49.988Z,5.86
2018-02-19T18:19:20.091Z,5.83
2018-02-19T18:21:50.289Z,5.94
2018-02-19T18:24:21.353Z,6.09
2018-02-19T18:26:51.572Z,6.11
2018-02-19T18:29:22.452Z,6.20
2018-02-19T18:31:52.500Z,6.07
2018-02-19T18:34:22.449Z,5.93
2018-02-19T18:36:53.661Z,5.77
2018-02-19T18:39:23.634Z,5.75
2018-02-19T18:41:53.472Z,5.76
2018-02-19T18:44:23.653Z,5.74
2018-02-19T18:46:53.400Z,5.67
2018-02-19T18:49:23.967Z,5.73
2018-02-19T18:51:53.775Z,5.73
2018-02-19T18:54:25.213Z,5.68
2018-02-19T18:56:55.121Z,5.61
2018-02-19T18:59:24.964Z,5.65
2018-02-19T19:01:54.909Z,5.63
2018-02-19T19:04:24.733Z,5.58
2018-02-19T19:06:54.660Z,5.74
2018-02-19T19:10:39.584Z,5.81
2018-02-19T19:13:13.012Z,5.57
2018-02-19T19:15:44.317Z,5.52
2018-02-19T19:18:15.976Z,5.53
2018-02-19T19:20:47.365Z,5.54
2018-02-19T19:23:18.199Z,5.55
2018-02-19T19:25:48.802Z,5.57
2018-02-19T19:28:18.705Z,5.59
2018-02-19T19:30:48.575Z,5.60
2018-02-19T19:33:18.552Z,5.61
2018-02-19T19:35:48.556Z,5.59
2018-02-19T19:38:19.443Z,5.61
2018-02-19T19:40:49.280Z,5.61
2018-02-19T19:43:19.141Z,5.60
2018-02-19T19:45:49.017Z,5.60
2018-02-19T19:48:18.760Z,5.74
2018-02-19T19:50:49.460Z,5.71
2018-02-19T19:53:19.381Z,5.62
2018-02-19T19:55:49.214Z,5.60
2018-02-19T19:58:19.710Z,5.75
2018-02-19T20:00:49.613Z,5.73
2018-02-19T20:03:19.752Z,5.81
2018-02-19T20:05:49.616Z,5.82
2018-02-19T20:08:20.270Z,5.68
2018-02-19T20:10:50.113Z,5.80
2018-02-19T20:13:19.926Z,5.74
2018-02-19T20:15:49.767Z,5.64
2018-02-19T20:18:19.636Z,5.68
2018-02-19T20:20:49.614Z,5.72
2018-02-19T20:23:20.353Z,5.74
2018-02-19T20:25:50.159Z,5.69
2018-02-19T20:28:20.058Z,5.84
2018-02-19T20:30:49.858Z,5.73
2018-02-19T20:33:19.713Z,5.70
2018-02-19T20:35:50.626Z,5.63
2018-02-19T20:38:20.636Z,5.64
2018-02-19T20:40:50.405Z,5.55
2018-02-19T20:43:20.771Z,5.63
2018-02-19T20:45:51.426Z,5.59
2018-02-19T20:48:21.228Z,5.73
2018-02-19T20:50:51.919Z,5.72
2018-02-19T20:53:21.702Z,5.68
2018-02-19T20:55:52.303Z,5.64
2018-02-19T20:58:22.433Z,5.64
2018-02-19T21:00:52.509Z,5.62
2018-02-19T21:03:22.544Z,5.67
2018-02-19T21:05:52.741Z,5.61
2018-02-19T21:08:22.507Z,5.53
2018-02-19T21:10:52.402Z,5.61
2018-02-19T21:13:23.016Z,5.63
2018-02-19T21:15:52.788Z,5.57
2018-02-19T21:18:22.600Z,5.58
2018-02-19T21:20:53.148Z,5.49
2018-02-19T21:23:23.674Z,5.52
2018-02-19T21:25:54.861Z,5.38
2018-02-19T21:28:24.631Z,5.42
2018-02-19T21:30:54.907Z,5.35
2018-02-19T21:33:24.901Z,5.36
2018-02-19T21:35:54.798Z,5.33
2018-02-19T21:38:24.711Z,5.35
2018-02-19T21:40:54.644Z,5.29
2018-02-19T21:43:24.488Z,5.29
2018-02-19T21:45:54.245Z,5.33
2018-02-19T21:48:24.800Z,5.34
2018-02-19T21:50:55.025Z,5.32
2018-02-19T21:53:25.643Z,5.38
2018-02-19T21:55:55.528Z,5.38
2018-02-19T21:58:25.278Z,5.29
2018-02-19T22:00:56.051Z,5.23
2018-02-19T22:03:26.727Z,5.34
2018-02-19T22:05:56.548Z,5.36
2018-02-19T22:08:26.312Z,5.32
2018-02-19T22:10:55.713Z,5.32
2018-02-19T22:13:26.221Z,5.30
2018-02-19T22:15:56.017Z,5.29
2018-02-19T22:18:26.489Z,5.24
2018-02-19T22:20:56.324Z,5.19
2018-02-19T22:23:26.127Z,5.09
2018-02-19T22:25:55.868Z,5.10
2018-02-19T22:28:25.704Z,5.09
2018-02-19T22:30:56.309Z,4.95
2018-02-19T22:33:26.172Z,4.83
2018-02-19T22:35:56.047Z,4.78
2018-02-19T22:38:26.789Z,4.81
2018-02-19T22:40:57.521Z,5.00
2018-02-19T22:43:27.376Z,4.81
2018-02-19T22:45:57.147Z,4.78
2018-02-19T22:48:27.662Z,4.68
2018-02-19T22:50:57.378Z,4.78
2018-02-19T22:53:27.590Z,4.68
2018-02-19T22:55:57.368Z,4.65
2018-02-19T22:58:27.155Z,4.58
2018-02-19T23:00:57.157Z,4.53
2018-02-19T23:03:27.825Z,4.48
2018-02-19T23:05:57.629Z,4.40
2018-02-19T23:08:27.486Z,4.40
2018-02-19T23:10:57.220Z,4.36
2018-02-19T23:13:27.021Z,4.31
2018-02-19T23:15:56.847Z,4.31
2018-02-19T23:18:27.077Z,4.33
2018-02-19T23:20:56.900Z,4.35
2018-02-19T23:23:26.766Z,4.33
2018-02-19T23:25:56.592Z,4.23
2018-02-19T23:28:26.416Z,4.09
2018-02-19T23:30:56.268Z,4.16
2018-02-19T23:33:26.916Z,4.09
2018-02-19T23:35:56.621Z,4.05
2018-02-19T23:38:27.160Z,3.95
2018-02-19T23:40:56.879Z,3.94
2018-02-19T23:43:26.773Z,3.98
2018-02-19T23:45:56.508Z,3.91
2018-02-19T23:48:26.377Z,3.94
2018-02-19T23:50:56.113Z,3.80
2018-02-19T23:53:25.962Z,3.88
2018-02-19T23:55:55.797Z,3.78
2018-02-19T23:58:25.520Z,3.71
